Time,TemperatureF,DewpointF,PressureIn,WindDirection,WindDirectionDegrees,WindSpeedMPH,WindSpeedGustMPH,Humidity,HourlyPrecipIn,Conditions,Clouds,dailyrainin,SoftwareType,DateUTC
2013-05-20 00:01:00,51.4,48.0,30.38,West,267,0.0,3.0,88,0.00,OVC,OVC,0.00,WeatherDisplay:10.34,2013-05-20 04:01:00,
2013-05-20 00:03:00,51.4,48.0,30.38,West,269,0.0,3.0,88,0.00,OVC,OVC,0.00,WeatherDisplay:10.34,2013-05-20 04:03:00,
2013-05-20 00:05:00,51.4,48.0,30.38,West,270,0.0,2.0,88,0.00,OVC,OVC,0.00,WeatherDisplay:10.34,2013-05-20 04:05:00,
2013-05-20 00:07:00,51.6,48.2,30.38,West,270,0.0,0.0,88,0.00,OVC,OVC,0.00,WeatherDisplay:10.34,2013-05-20 04:07:00,
2013-05-20 00:09:00,51.6,48.2,30.38,West,270,0.0,0.0,88,0.00,OVC,OVC,0.00,WeatherDisplay:10.34,2013-05-20 04:09:00,
2013-05-20 00:14:00,51.6,48.2,30.38,West,268,0.0,2.0,88,0.00,OVC,OVC,0.00,WeatherDisplay:10.34,2013-05-20 04:14:00,
2013-05-20 00:19:00,51.6,48.2,30.38,West,269,0.0,0.0,88,0.00,OVC,OVC,0.00,WeatherDisplay:10.34,2013-05-20 04:19:00,
2013-05-20 00:24:00,51.6,48.5,30.38,West,269,0.0,0.0,89,0.00,OVC,OVC,0.00,WeatherDisplay:10.34,2013-05-20 04:24:00,
2013-05-20 00:29:00,51.6,48.5,30.38,South,187,0.0,5.0,89,0.00,OVC,OVC,0.00,WeatherDisplay:10.34,2013-05-20 04:29:00,
2013-05-20 00:34:00,51.6,48.5,30.34,WNW,282,0.0,6.0,89,0.00,OVC,OVC,0.00,WeatherDisplay:10.34,2013-05-20 04:34:00,
2013-05-20 00:39:00,51.6,48.5,30.34,WNW,284,0.0,2.0,89,0.00,OVC,OVC,0.00,WeatherDisplay:10.34,2013-05-20 04:39:00,
2013-05-20 00:44:00,51.6,48.5,30.34,WSW,247,0.0,3.0,89,0.00,OVC,OVC,0.00,WeatherDisplay:10.34,2013-05-20 04:44:00,
2013-05-20 00:49:00,51.6,48.5,30.34,South,186,0.0,0.0,89,0.00,OVC,OVC,0.00,WeatherDisplay:10.34,2013-05-20 04:49:00,
2013-05-20 00:54:00,51.6,48.5,30.34,South,184,0.0,0.0,89,0.00,OVC,OVC,0.00,WeatherDisplay:10.34,2013-05-20 04:54:00,
2013-05-20 00:59:00,51.6,48.8,30.34,WSW,255,3.0,5.0,90,0.00,OVC,OVC,0.00,WeatherDisplay:10.34,2013-05-20 04:59:00,
2013-05-20 01:04:00,51.6,48.8,30.34,South,173,0.0,3.0,90,0.00,OVC,OVC,0.00,WeatherDisplay:10.34,2013-05-20 05:04:00,
2013-05-20 01:09:00,51.6,48.8,30.34,WSW,238,3.0,3.0,90,0.00,OVC,OVC,0.00,WeatherDisplay:10.34,2013-05-20 05:09:00,
2013-05-20 01:14:00,51.6,48.8,30.34,South,175,4.0,6.0,90,0.00,OVC,OVC,0.00,WeatherDisplay:10.34,2013-05-20 05:14:00,
2013-05-20 01:19:00,51.6,49.1,30.31,SSE,153,0.0,3.0,91,0.00,OVC,OVC,0.00,WeatherDisplay:10.34,2013-05-20 05:19:00,
2013-05-20 01:24:00,51.6,49.1,30.31,SW,233,0.0,0.0,91,0.00,OVC,OVC,0.00,WeatherDisplay:10.34,2013-05-20 05:24:00,
2013-05-20 01:29:00,51.6,49.1,30.31,West,272,3.0,7.0,91,0.00,OVC,OVC,0.00,WeatherDisplay:10.34,2013-05-20 05:29:00,
2013-05-20 01:34:00,51.6,49.1,30.31,WSW,243,3.0,6.0,91,0.00,OVC,OVC,0.00,WeatherDisplay:10.34,2013-05-20 05:34:00,
2013-05-20 01:39:00,51.6,49.1,30.31,WSW,246,4.0,7.0,91,0.00,OVC,OVC,0.00,WeatherDisplay:10.34,2013-05-20 05:39:00,
2013-05-20 01:44:00,51.4,49.2,30.31,South,180,0.0,0.0,92,0.00,OVC,OVC,0.00,WeatherDisplay:10.34,2013-05-20 05:44:00,
2013-05-20 01:49:00,51.4,49.2,30.31,West,264,4.0,10.0,92,0.00,OVC,OVC,0.00,WeatherDisplay:10.34,2013-05-20 05:49:00,
2013-05-20 01:54:00,51.4,49.2,30.31,SSW,211,3.0,5.0,92,0.00,OVC,OVC,0.00,WeatherDisplay:10.34,2013-05-20 05:54:00,
2013-05-20 01:59:00,51.4,49.2,30.31,West,265,3.0,5.0,92,0.00,OVC,OVC,0.00,WeatherDisplay:10.34,2013-05-20 05:59:00,
2013-05-20 02:04:00,51.4,49.2,30.31,SW,229,3.0,5.0,92,0.00,OVC,OVC,0.00,WeatherDisplay:10.34,2013-05-20 06:04:00,
2013-05-20 02:09:00,51.4,49.5,30.31,West,268,0.0,0.0,93,0.00,OVC,OVC,0.00,WeatherDisplay:10.34,2013-05-20 06:09:00,
2013-05-20 02:14:00,51.4,49.5,30.31,WSW,251,3.0,6.0,93,0.00,OVC,OVC,0.00,WeatherDisplay:10.34,2013-05-20 06:14:00,
2013-05-20 02:19:00,51.4,49.5,30.28,South,185,4.0,9.0,93,0.00,OVC,OVC,0.00,WeatherDisplay:10.34,2013-05-20 06:19:00,
2013-05-20 02:24:00,51.6,49.7,30.28,South,182,0.0,3.0,93,0.00,OVC,OVC,0.00,WeatherDisplay:10.34,2013-05-20 06:24:00,
2013-05-20 02:29:00,51.6,49.7,30.28,NW,323,0.0,8.0,93,0.00,OVC,OVC,0.00,WeatherDisplay:10.34,2013-05-20 06:29:00,
2013-05-20 02:34:00,51.6,49.7,30.28,West,278,0.0,2.0,93,0.00,OVC,OVC,0.00,WeatherDisplay:10.34,2013-05-20 06:34:00,
2013-05-20 02:39:00,51.6,49.7,30.28,WNW,299,4.0,9.0,93,0.00,OVC,OVC,0.00,WeatherDisplay:10.34,2013-05-20 06:39:00,
2013-05-20 02:44:00,51.6,49.9,30.28,SSW,200,0.0,6.0,94,0.00,OVC,OVC,0.00,WeatherDisplay:10.34,2013-05-20 06:44:00,
2013-05-20 02:49:00,51.6,49.9,30.28,West,271,3.0,3.0,94,0.00,OVC,OVC,0.00,WeatherDisplay:10.34,2013-05-20 06:49:00,
2013-05-20 02:54:00,51.4,49.8,30.28,SW,227,3.0,7.0,94,0.00,OVC,OVC,0.00,WeatherDisplay:10.34,2013-05-20 06:54:00,
2013-05-20 02:59:00,51.4,49.8,30.28,South,191,4.0,7.0,94,0.00,OVC,OVC,0.00,WeatherDisplay:10.34,2013-05-20 06:59:00,
2013-05-20 03:04:00,51.3,49.6,30.28,NW,310,4.0,7.0,94,0.00,OVC,OVC,0.00,WeatherDisplay:10.34,2013-05-20 07:04:00,
2013-05-20 03:09:00,51.3,49.6,30.28,South,188,0.0,0.0,94,0.00,OVC,OVC,0.00,WeatherDisplay:10.34,2013-05-20 07:09:00,
2013-05-20 03:14:00,51.3,49.6,30.28,WNW,287,5.0,7.0,94,0.00,OVC,OVC,0.00,WeatherDisplay:10.34,2013-05-20 07:14:00,
2013-05-20 03:19:00,51.3,49.6,30.28,SSW,198,0.0,3.0,94,0.00,OVC,OVC,0.00,WeatherDisplay:10.34,2013-05-20 07:19:00,
2013-05-20 03:24:00,51.3,49.6,30.28,WSW,242,0.0,0.0,94,0.00,OVC,OVC,0.00,WeatherDisplay:10.34,2013-05-20 07:24:00,
2013-05-20 03:29:00,51.3,49.6,30.28,WSW,255,0.0,0.0,94,0.00,OVC,OVC,0.00,WeatherDisplay:10.34,2013-05-20 07:29:00,
2013-05-20 03:34:00,51.3,49.6,30.28,WSW,255,0.0,0.0,94,0.00,OVC,OVC,0.00,WeatherDisplay:10.34,2013-05-20 07:34:00,
2013-05-20 03:39:00,51.3,49.6,30.28,WSW,257,3.0,7.0,94,0.00,OVC,OVC,0.00,WeatherDisplay:10.34,2013-05-20 07:39:00,
2013-05-20 03:44:00,51.1,49.4,30.28,WSW,256,4.0,7.0,94,0.00,OVC,OVC,0.00,WeatherDisplay:10.34,2013-05-20 07:44:00,
2013-05-20 03:49:00,51.1,49.4,30.25,WNW,295,0.0,6.0,94,0.00,OVC,OVC,0.00,WeatherDisplay:10.34,2013-05-20 07:49:00,
2013-05-20 03:54:00,51.1,49.4,30.25,South,191,0.0,0.0,94,0.00,OVC,OVC,0.00,WeatherDisplay:10.34,2013-05-20 07:54:00,
2013-05-20 03:59:00,51.1,49.4,30.25,SSE,168,3.0,5.0,94,0.00,OVC,OVC,0.00,WeatherDisplay:10.34,2013-05-20 07:59:00,
2013-05-20 04:04:00,51.1,49.7,30.25,WSW,241,3.0,6.0,95,0.00,OVC,OVC,0.00,WeatherDisplay:10.34,2013-05-20 08:04:00,
2013-05-20 04:09:00,51.1,49.7,30.25,WSW,241,0.0,0.0,95,0.00,OVC,OVC,0.00,WeatherDisplay:10.34,2013-05-20 08:09:00,
2013-05-20 04:14:00,51.3,49.9,30.25,WSW,241,0.0,0.0,95,0.00,OVC,OVC,0.00,WeatherDisplay:10.34,2013-05-20 08:14:00,
2013-05-20 04:19:00,51.3,49.9,30.22,WSW,240,0.0,0.0,95,0.00,OVC,OVC,0.00,WeatherDisplay:10.34,2013-05-20 08:19:00,
2013-05-20 04:24:00,51.3,49.9,30.22,WNW,286,0.0,3.0,95,0.00,OVC,OVC,0.00,WeatherDisplay:10.34,2013-05-20 08:24:00,
2013-05-20 04:29:00,51.3,49.9,30.22,SW,220,3.0,3.0,95,0.00,OVC,OVC,0.00,WeatherDisplay:10.34,2013-05-20 08:29:00,
2013-05-20 04:34:00,51.1,49.7,30.22,WSW,237,3.0,5.0,95,0.00,OVC,OVC,0.00,WeatherDisplay:10.34,2013-05-20 08:34:00,
2013-05-20 04:39:00,50.9,49.5,30.22,SSW,198,0.0,0.0,95,0.00,OVC,OVC,0.00,WeatherDisplay:10.34,2013-05-20 08:39:00,
2013-05-20 04:44:00,50.9,49.5,30.22,SW,219,0.0,6.0,95,0.00,OVC,OVC,0.00,WeatherDisplay:10.34,2013-05-20 08:44:00,
2013-05-20 04:49:00,51.1,49.7,30.22,SW,219,0.0,0.0,95,0.00,OVC,OVC,0.00,WeatherDisplay:10.34,2013-05-20 08:49:00,
2013-05-20 04:54:00,51.1,49.7,30.22,SW,219,0.0,0.0,95,0.00,OVC,OVC,0.00,WeatherDisplay:10.34,2013-05-20 08:54:00,
2013-05-20 04:59:00,51.1,49.7,30.22,SW,219,0.0,2.0,95,0.00,OVC,OVC,0.00,WeatherDisplay:10.34,2013-05-20 08:59:00,
2013-05-20 05:04:00,51.1,49.7,30.22,SW,219,0.0,0.0,95,0.00,OVC,OVC,0.00,WeatherDisplay:10.34,2013-05-20 09:04:00,
2013-05-20 05:09:00,51.1,49.7,30.22,SW,219,0.0,0.0,95,0.00,OVC,OVC,0.00,WeatherDisplay:10.34,2013-05-20 09:09:00,
2013-05-20 05:14:00,51.1,49.7,30.22,SW,219,0.0,0.0,95,0.00,OVC,OVC,0.00,WeatherDisplay:10.34,2013-05-20 09:14:00,
2013-05-20 05:19:00,51.1,49.7,30.22,SW,219,0.0,0.0,95,0.00,OVC,OVC,0.00,WeatherDisplay:10.34,2013-05-20 09:19:00,
2013-05-20 05:24:00,51.1,49.7,30.22,SW,219,0.0,0.0,95,0.00,OVC,OVC,0.00,WeatherDisplay:10.34,2013-05-20 09:24:00,
2013-05-20 05:29:00,51.3,49.9,30.22,SW,219,0.0,0.0,95,0.00,OVC,OVC,0.00,WeatherDisplay:10.34,2013-05-20 09:29:00,
2013-05-20 05:34:00,51.3,49.9,30.22,WSW,252,0.0,0.0,95,0.00,OVC,OVC,0.00,WeatherDisplay:10.34,2013-05-20 09:34:00,
2013-05-20 05:39:00,51.3,49.9,30.22,WSW,252,0.0,0.0,95,0.00,OVC,OVC,0.00,WeatherDisplay:10.34,2013-05-20 09:39:00,
2013-05-20 05:44:00,51.3,49.9,30.22,WSW,252,0.0,0.0,95,0.00,OVC,OVC,0.00,WeatherDisplay:10.34,2013-05-20 09:44:00,
2013-05-20 05:49:00,51.4,50.1,30.22,WSW,252,0.0,2.0,95,0.00,OVC,OVC,0.00,WeatherDisplay:10.34,2013-05-20 09:49:00,
2013-05-20 05:54:00,51.4,50.1,30.22,WSW,252,0.0,0.0,95,0.00,OVC,OVC,0.00,WeatherDisplay:10.34,2013-05-20 09:54:00,
2013-05-20 05:59:00,51.4,50.1,30.22,WSW,252,0.0,0.0,95,0.00,OVC,OVC,0.00,WeatherDisplay:10.34,2013-05-20 09:59:00,
2013-05-20 06:04:00,51.4,50.1,30.19,WSW,252,0.0,0.0,95,0.00,OVC,OVC,0.00,WeatherDisplay:10.34,2013-05-20 10:04:00,
2013-05-20 06:09:00,51.6,50.2,30.19,WSW,252,0.0,0.0,95,0.00,OVC,OVC,0.00,WeatherDisplay:10.34,2013-05-20 10:09:00,
2013-05-20 06:14:00,51.6,50.2,30.19,WNW,288,0.0,3.0,95,0.00,OVC,OVC,0.00,WeatherDisplay:10.34,2013-05-20 10:14:00,
2013-05-20 06:19:00,51.6,50.2,30.19,WNW,288,0.0,0.0,95,0.00,OVC,OVC,0.00,WeatherDisplay:10.34,2013-05-20 10:19:00,
2013-05-20 06:24:00,51.6,50.2,30.19,WNW,288,0.0,0.0,95,0.00,OVC,OVC,0.00,WeatherDisplay:10.34,2013-05-20 10:24:00,
2013-05-20 06:29:00,51.6,50.2,30.19,WNW,288,0.0,2.0,95,0.00,OVC,OVC,0.00,WeatherDisplay:10.34,2013-05-20 10:29:00,
2013-05-20 06:34:00,51.6,50.2,30.19,WNW,289,0.0,2.0,95,0.00,OVC,OVC,0.00,WeatherDisplay:10.34,2013-05-20 10:34:00,
2013-05-20 06:39:00,51.6,50.2,30.19,WNW,288,0.0,2.0,95,0.00,OVC,OVC,0.00,WeatherDisplay:10.34,2013-05-20 10:39:00,
2013-05-20 06:44:00,51.6,50.2,30.19,NW,305,0.0,0.0,95,0.00,OVC,OVC,0.00,WeatherDisplay:10.34,2013-05-20 10:44:00,
2013-05-20 06:49:00,51.6,50.2,30.19,NW,305,0.0,0.0,95,0.00,OVC,OVC,0.00,WeatherDisplay:10.34,2013-05-20 10:49:00,
2013-05-20 06:54:00,51.6,50.2,30.19,NW,306,0.0,2.0,95,0.00,OVC,OVC,0.00,WeatherDisplay:10.34,2013-05-20 10:54:00,
2013-05-20 06:59:00,51.8,50.4,30.19,NW,305,0.0,0.0,95,0.00,OVC,OVC,0.00,WeatherDisplay:10.34,2013-05-20 10:59:00,
2013-05-20 07:04:00,51.8,50.4,30.19,NW,305,0.0,0.0,95,0.00,OVC,OVC,0.00,WeatherDisplay:10.34,2013-05-20 11:04:00,
2013-05-20 07:09:00,52.0,50.6,30.19,WNW,283,3.0,7.0,95,0.00,OVC,OVC,0.00,WeatherDisplay:10.34,2013-05-20 11:09:00,
2013-05-20 07:14:00,51.8,50.4,30.19,WNW,283,0.0,2.0,95,0.00,OVC,OVC,0.00,WeatherDisplay:10.34,2013-05-20 11:14:00,
2013-05-20 07:19:00,52.0,50.6,30.19,WNW,283,0.0,0.0,95,0.00,OVC,OVC,0.00,WeatherDisplay:10.34,2013-05-20 11:19:00,
2013-05-20 07:24:00,52.0,50.6,30.19,WNW,283,0.0,0.0,95,0.00,OVC,OVC,0.00,WeatherDisplay:10.34,2013-05-20 11:24:00,
2013-05-20 07:29:00,52.2,50.8,30.19,WNW,283,0.0,0.0,95,0.00,OVC,OVC,0.00,WeatherDisplay:10.34,2013-05-20 11:29:00,
2013-05-20 07:34:00,52.2,50.8,30.19,WNW,283,0.0,0.0,95,0.00,OVC,OVC,0.00,WeatherDisplay:10.34,2013-05-20 11:34:00,
2013-05-20 07:39:00,52.3,51.0,30.19,WNW,283,0.0,0.0,95,0.00,OVC,OVC,0.00,WeatherDisplay:10.34,2013-05-20 11:39:00,
2013-05-20 07:44:00,52.3,51.0,30.19,WNW,283,0.0,0.0,95,0.00,OVC,OVC,0.00,WeatherDisplay:10.34,2013-05-20 11:44:00,
2013-05-20 07:49:00,52.3,51.0,30.19,WNW,283,0.0,0.0,95,0.00,OVC,OVC,0.00,WeatherDisplay:10.34,2013-05-20 11:49:00,
2013-05-20 07:54:00,52.5,51.4,30.19,WNW,283,0.0,0.0,96,0.00,OVC,OVC,0.00,WeatherDisplay:10.34,2013-05-20 11:54:00,
2013-05-20 07:59:00,52.5,51.4,30.19,WNW,283,0.0,0.0,96,0.00,OVC,OVC,0.00,WeatherDisplay:10.34,2013-05-20 11:59:00,
2013-05-20 08:04:00,52.7,51.6,30.19,WNW,283,0.0,0.0,96,0.00,OVC,OVC,0.00,WeatherDisplay:10.34,2013-05-20 12:04:00,
2013-05-20 08:09:00,52.9,51.5,30.19,WNW,283,0.0,3.0,95,0.00,OVC,OVC,0.00,WeatherDisplay:10.34,2013-05-20 12:09:00,
2013-05-20 08:14:00,53.1,52.0,30.19,WNW,283,0.0,3.0,96,0.00,OVC,OVC,0.00,WeatherDisplay:10.34,2013-05-20 12:14:00,
2013-05-20 08:19:00,53.1,52.0,30.19,WNW,283,0.0,0.0,96,0.00,OVC,OVC,0.00,WeatherDisplay:10.34,2013-05-20 12:19:00,
2013-05-20 08:24:00,53.1,52.0,30.19,WNW,283,0.0,0.0,96,0.00,OVC,OVC,0.00,WeatherDisplay:10.34,2013-05-20 12:24:00,
2013-05-20 08:29:00,53.2,52.1,30.19,NW,307,0.0,0.0,96,0.00,OVC,OVC,0.00,WeatherDisplay:10.34,2013-05-20 12:29:00,
2013-05-20 08:34:00,53.4,52.3,30.19,SSW,208,5.0,12.0,96,0.00,OVC,OVC,0.00,WeatherDisplay:10.34,2013-05-20 12:34:00,
2013-05-20 08:39:00,53.6,52.5,30.19,West,280,3.0,7.0,96,0.00,OVC,OVC,0.00,WeatherDisplay:10.34,2013-05-20 12:39:00,
2013-05-20 08:44:00,53.6,52.8,30.19,WSW,254,0.0,9.0,97,0.00,OVC,OVC,0.00,WeatherDisplay:10.34,2013-05-20 12:44:00,
2013-05-20 08:49:00,53.8,52.9,30.19,WNW,295,0.0,8.0,97,0.00,OVC,OVC,0.00,WeatherDisplay:10.34,2013-05-20 12:49:00,
2013-05-20 08:54:00,54.0,53.1,30.19,North,351,0.0,3.0,97,0.00,OVC,OVC,0.00,WeatherDisplay:10.34,2013-05-20 12:54:00,
2013-05-20 08:59:00,54.0,53.1,30.19,NNE,14,5.0,12.0,97,0.00,OVC,OVC,0.00,WeatherDisplay:10.34,2013-05-20 12:59:00,
2013-05-20 09:04:00,54.1,53.3,30.19,WNW,299,4.0,8.0,97,0.00,OVC,OVC,0.00,WeatherDisplay:10.34,2013-05-20 13:04:00,
2013-05-20 09:09:00,54.5,53.7,30.19,West,269,3.0,7.0,97,0.00,OVC,OVC,0.00,WeatherDisplay:10.34,2013-05-20 13:09:00,
2013-05-20 09:14:00,54.9,54.0,30.19,NNE,19,4.0,8.0,97,0.00,OVC,OVC,0.00,WeatherDisplay:10.34,2013-05-20 13:14:00,
2013-05-20 09:19:00,55.0,54.2,30.19,NE,35,3.0,6.0,97,0.00,OVC,OVC,0.00,WeatherDisplay:10.34,2013-05-20 13:19:00,
2013-05-20 09:24:00,55.4,54.6,30.19,North,10,3.0,3.0,97,0.00,OVC,OVC,0.00,WeatherDisplay:10.34,2013-05-20 13:24:00,
2013-05-20 09:29:00,55.8,54.9,30.19,NNE,19,5.0,9.0,97,0.00,OVC,OVC,0.00,WeatherDisplay:10.34,2013-05-20 13:29:00,
2013-05-20 09:34:00,55.8,54.9,30.19,WNW,294,6.0,12.0,97,0.00,OVC,OVC,0.00,WeatherDisplay:10.34,2013-05-20 13:34:00,
2013-05-20 09:39:00,55.9,55.1,30.19,SW,230,6.0,12.0,97,0.00,OVC,OVC,0.00,WeatherDisplay:10.34,2013-05-20 13:39:00,
2013-05-20 09:44:00,55.9,55.1,30.19,West,263,5.0,12.0,97,0.00,OVC,OVC,0.00,WeatherDisplay:10.34,2013-05-20 13:44:00,
2013-05-20 09:49:00,55.9,55.1,30.19,WNW,299,4.0,10.0,97,0.00,OVC,OVC,0.00,WeatherDisplay:10.34,2013-05-20 13:49:00,
2013-05-20 09:54:00,55.9,55.1,30.19,West,263,4.0,6.0,97,0.00,OVC,OVC,0.00,WeatherDisplay:10.34,2013-05-20 13:54:00,
2013-05-20 09:59:00,55.9,55.1,30.19,NW,325,5.0,12.0,97,0.00,OVC,OVC,0.00,WeatherDisplay:10.34,2013-05-20 13:59:00,
2013-05-20 10:04:00,55.9,55.1,30.19,West,277,4.0,13.0,97,0.00,OVC,OVC,0.00,WeatherDisplay:10.34,2013-05-20 14:04:00,
2013-05-20 10:09:00,55.9,55.1,30.19,NNW,334,3.0,12.0,97,0.00,OVC,OVC,0.00,WeatherDisplay:10.34,2013-05-20 14:09:00,
2013-05-20 10:14:00,56.1,55.3,30.19,NNE,12,3.0,8.0,97,0.00,OVC,OVC,0.00,WeatherDisplay:10.34,2013-05-20 14:14:00,
2013-05-20 10:19:00,56.3,55.5,30.19,WSW,250,3.0,9.0,97,0.00,OVC,OVC,0.00,WeatherDisplay:10.34,2013-05-20 14:19:00,
2013-05-20 10:24:00,56.5,55.6,30.19,SW,223,6.0,9.0,97,0.00,OVC,OVC,0.00,WeatherDisplay:10.34,2013-05-20 14:24:00,
2013-05-20 10:29:00,56.8,56.0,30.19,NE,42,4.0,13.0,97,0.00,OVC,OVC,0.00,WeatherDisplay:10.34,2013-05-20 14:29:00,
2013-05-20 10:34:00,57.2,56.4,30.16,WNW,282,4.0,9.0,97,0.00,OVC,OVC,0.00,WeatherDisplay:10.34,2013-05-20 14:34:00,
2013-05-20 10:39:00,57.2,56.4,30.16,WNW,294,7.0,13.0,97,0.00,OVC,OVC,0.00,WeatherDisplay:10.34,2013-05-20 14:39:00,
2013-05-20 10:44:00,57.2,56.4,30.16,WSW,257,5.0,12.0,97,0.00,OVC,OVC,0.00,WeatherDisplay:10.34,2013-05-20 14:44:00,
2013-05-20 10:49:00,57.4,56.5,30.19,WSW,252,0.0,6.0,97,0.00,OVC,OVC,0.00,WeatherDisplay:10.34,2013-05-20 14:49:00,
2013-05-20 10:54:00,57.7,56.9,30.19,WNW,286,4.0,8.0,97,0.00,OVC,OVC,0.00,WeatherDisplay:10.34,2013-05-20 14:54:00,
2013-05-20 10:59:00,58.1,57.3,30.19,NNE,24,6.0,15.0,97,0.00,OVC,OVC,0.00,WeatherDisplay:10.34,2013-05-20 14:59:00,
2013-05-20 11:04:00,58.3,57.4,30.19,NNE,22,4.0,6.0,97,0.00,OVC,OVC,0.00,WeatherDisplay:10.34,2013-05-20 15:04:00,
2013-05-20 11:09:00,58.8,58.0,30.19,South,181,4.0,8.0,97,0.00,OVC,OVC,0.00,WeatherDisplay:10.34,2013-05-20 15:09:00,
2013-05-20 11:14:00,59.0,57.9,30.19,WSW,243,6.0,10.0,96,0.00,OVC,OVC,0.00,WeatherDisplay:10.34,2013-05-20 15:14:00,
2013-05-20 11:19:00,59.0,57.6,30.16,SSW,197,4.0,9.0,95,0.00,OVC,OVC,0.00,WeatherDisplay:10.34,2013-05-20 15:19:00,
2013-05-20 11:24:00,59.2,57.5,30.16,NNE,16,3.0,12.0,94,0.00,OVC,OVC,0.00,WeatherDisplay:10.34,2013-05-20 15:24:00,
2013-05-20 11:29:00,59.4,57.3,30.16,WNW,283,3.0,9.0,93,0.00,OVC,OVC,0.00,WeatherDisplay:10.34,2013-05-20 15:29:00,
2013-05-20 11:34:00,59.7,57.4,30.15,West,262,8.0,14.0,92,0.00,OVC,OVC,0.00,WeatherDisplay:10.34,2013-05-20 15:34:00,
2013-05-20 11:39:00,60.1,56.8,30.15,SW,225,13.0,24.0,89,0.00,OVC,OVC,0.00,WeatherDisplay:10.34,2013-05-20 15:39:00,
2013-05-20 11:44:00,60.1,56.2,30.15,North,0,6.0,16.0,87,0.00,OVC,OVC,0.00,WeatherDisplay:10.34,2013-05-20 15:44:00,
2013-05-20 11:49:00,60.1,55.9,30.12,West,260,6.0,17.0,86,0.00,OVC,OVC,0.00,WeatherDisplay:10.34,2013-05-20 15:49:00,
2013-05-20 11:54:00,60.8,56.3,30.12,SSW,212,11.0,22.0,85,0.00,OVC,OVC,0.00,WeatherDisplay:10.34,2013-05-20 15:54:00,
2013-05-20 11:59:00,61.3,56.5,30.12,SSW,213,4.0,12.0,84,0.00,OVC,OVC,0.00,WeatherDisplay:10.34,2013-05-20 15:59:00,
2013-05-20 12:04:00,61.9,56.7,30.12,SW,232,8.0,16.0,83,0.00,BKN,BKN,0.00,WeatherDisplay:10.34,2013-05-20 16:04:00,
2013-05-20 12:09:00,62.2,56.3,30.12,WSW,243,6.0,13.0,81,0.00,BKN,BKN,0.00,WeatherDisplay:10.34,2013-05-20 16:09:00,
2013-05-20 12:14:00,62.8,56.2,30.12,WSW,248,13.0,22.0,79,0.00,BKN,BKN,0.00,WeatherDisplay:10.34,2013-05-20 16:14:00,
2013-05-20 12:19:00,63.1,55.8,30.12,NW,304,12.0,17.0,77,0.00,BKN,BKN,0.00,WeatherDisplay:10.34,2013-05-20 16:19:00,
2013-05-20 12:25:00,63.5,55.8,30.12,NE,48,3.0,9.0,76,0.00,BKN,BKN,0.00,WeatherDisplay:10.34,2013-05-20 16:25:00,
2013-05-20 12:30:00,64.0,56.0,30.12,WSW,239,3.0,15.0,75,0.00,BKN,BKN,0.00,WeatherDisplay:10.34,2013-05-20 16:30:00,
2013-05-20 12:35:00,64.4,55.6,30.12,SW,214,8.0,21.0,73,0.00,BKN,BKN,0.00,WeatherDisplay:10.34,2013-05-20 16:35:00,
2013-05-20 12:40:00,64.8,55.5,30.12,SSW,208,7.0,17.0,72,0.00,BKN,BKN,0.00,WeatherDisplay:10.34,2013-05-20 16:40:00,
2013-05-20 12:45:00,65.1,55.9,30.12,NW,323,4.0,14.0,72,0.00,BKN,BKN,0.00,WeatherDisplay:10.34,2013-05-20 16:45:00,
2013-05-20 12:50:00,65.1,55.9,30.12,WNW,302,6.0,16.0,72,0.00,BKN,BKN,0.00,WeatherDisplay:10.34,2013-05-20 16:50:00,
2013-05-20 12:55:00,65.3,55.3,30.12,North,2,10.0,17.0,70,0.00,BKN,BKN,0.00,WeatherDisplay:10.34,2013-05-20 16:55:00,
2013-05-20 13:00:00,65.5,55.8,30.12,WSW,247,10.0,13.0,71,0.00,BKN,BKN,0.00,WeatherDisplay:10.34,2013-05-20 17:00:00,
2013-05-20 13:05:00,66.0,56.0,30.11,WSW,240,6.0,13.0,70,0.00,OVC,OVC,0.00,WeatherDisplay:10.34,2013-05-20 17:05:00,
2013-05-20 13:10:00,66.6,55.7,30.11,West,270,9.0,15.0,68,0.00,OVC,OVC,0.00,WeatherDisplay:10.34,2013-05-20 17:10:00,
2013-05-20 13:15:00,66.9,56.0,30.11,WSW,256,7.0,8.0,68,0.00,OVC,OVC,0.00,WeatherDisplay:10.34,2013-05-20 17:15:00,
2013-05-20 13:20:00,67.5,55.3,30.11,WSW,241,11.0,14.0,65,0.00,OVC,OVC,0.00,WeatherDisplay:10.34,2013-05-20 17:20:00,
2013-05-20 13:25:00,67.8,55.2,30.11,West,281,7.0,12.0,64,0.00,OVC,OVC,0.00,WeatherDisplay:10.34,2013-05-20 17:25:00,
2013-05-20 13:30:00,68.0,54.5,30.11,SW,230,4.0,7.0,62,0.00,OVC,OVC,0.00,WeatherDisplay:10.34,2013-05-20 17:30:00,
2013-05-20 13:35:00,68.4,53.5,30.11,SW,214,8.0,17.0,59,0.00,OVC,OVC,0.00,WeatherDisplay:10.34,2013-05-20 17:35:00,
2013-05-20 13:40:00,68.5,53.6,30.11,ENE,67,11.0,15.0,59,0.00,OVC,OVC,0.00,WeatherDisplay:10.34,2013-05-20 17:40:00,
2013-05-20 13:45:00,68.5,54.1,30.11,South,169,3.0,7.0,60,0.00,OVC,OVC,0.00,WeatherDisplay:10.34,2013-05-20 17:45:00,
2013-05-20 13:50:00,68.9,55.3,30.11,NNE,17,5.0,14.0,62,0.00,OVC,OVC,0.00,WeatherDisplay:10.34,2013-05-20 17:50:00,
2013-05-20 13:55:00,69.1,53.7,30.11,NNE,12,7.0,13.0,58,0.00,OVC,OVC,0.00,WeatherDisplay:10.34,2013-05-20 17:55:00,
2013-05-20 14:00:00,69.1,53.7,30.11,NNE,17,7.0,14.0,58,0.00,OVC,OVC,0.00,WeatherDisplay:10.34,2013-05-20 18:00:00,
2013-05-20 14:05:00,69.3,53.8,30.11,NNW,338,4.0,9.0,58,0.00,OVC,OVC,0.00,WeatherDisplay:10.34,2013-05-20 18:05:00,
2013-05-20 14:10:00,69.3,54.3,30.11,NE,55,4.0,8.0,59,0.00,OVC,OVC,0.00,WeatherDisplay:10.34,2013-05-20 18:10:00,
2013-05-20 14:15:00,69.4,54.5,30.11,NNW,347,4.0,7.0,59,0.00,OVC,OVC,0.00,WeatherDisplay:10.34,2013-05-20 18:15:00,
2013-05-20 14:20:00,69.1,52.7,30.11,NE,52,7.0,20.0,56,0.00,OVC,OVC,0.00,WeatherDisplay:10.34,2013-05-20 18:20:00,
2013-05-20 14:25:00,69.1,52.7,30.11,NE,49,9.0,21.0,56,0.00,OVC,OVC,0.00,WeatherDisplay:10.34,2013-05-20 18:25:00,
2013-05-20 14:30:00,69.1,53.2,30.11,NNE,13,10.0,21.0,57,0.00,OVC,OVC,0.00,WeatherDisplay:10.34,2013-05-20 18:30:00,
2013-05-20 14:35:00,69.1,53.2,30.11,North,356,11.0,22.0,57,0.00,OVC,OVC,0.00,WeatherDisplay:10.34,2013-05-20 18:35:00,
2013-05-20 14:40:00,69.3,53.8,30.11,SSW,209,7.0,18.0,58,0.00,OVC,OVC,0.00,WeatherDisplay:10.34,2013-05-20 18:40:00,
2013-05-20 14:45:00,69.4,53.5,30.11,South,174,6.0,14.0,57,0.00,OVC,OVC,0.00,WeatherDisplay:10.34,2013-05-20 18:45:00,
2013-05-20 14:50:00,69.6,52.7,30.11,North,9,7.0,14.0,55,0.00,OVC,OVC,0.00,WeatherDisplay:10.34,2013-05-20 18:50:00,
2013-05-20 14:55:00,69.6,52.2,30.11,North,10,8.0,12.0,54,0.00,OVC,OVC,0.00,WeatherDisplay:10.34,2013-05-20 18:55:00,
2013-05-20 15:00:00,70.0,53.6,30.11,West,259,4.0,10.0,56,0.00,OVC,OVC,0.00,WeatherDisplay:10.34,2013-05-20 19:00:00,
2013-05-20 15:05:00,70.3,52.9,30.11,SE,141,3.0,8.0,54,0.00,OVC,OVC,0.00,WeatherDisplay:10.34,2013-05-20 19:05:00,
2013-05-20 15:10:00,70.5,53.1,30.11,North,351,4.0,7.0,54,0.00,OVC,OVC,0.00,WeatherDisplay:10.34,2013-05-20 19:10:00,
2013-05-20 15:15:00,70.5,52.6,30.11,South,187,4.0,7.0,53,0.00,OVC,OVC,0.00,WeatherDisplay:10.34,2013-05-20 19:15:00,
2013-05-20 15:20:00,70.3,51.9,30.11,WSW,238,5.0,12.0,52,0.00,OVC,OVC,0.00,WeatherDisplay:10.34,2013-05-20 19:20:00,
2013-05-20 15:26:00,70.2,51.7,30.11,SW,230,6.0,12.0,52,0.00,OVC,OVC,0.00,WeatherDisplay:10.34,2013-05-20 19:26:00,
2013-05-20 15:31:00,69.6,52.2,30.11,NW,308,4.0,7.0,54,0.00,OVC,OVC,0.00,WeatherDisplay:10.34,2013-05-20 19:31:00,
2013-05-20 15:36:00,69.1,52.2,30.11,West,259,7.0,12.0,55,0.00,OVC,OVC,0.00,WeatherDisplay:10.34,2013-05-20 19:36:00,
2013-05-20 15:41:00,68.7,52.9,30.11,WSW,239,4.0,7.0,57,0.00,OVC,OVC,0.00,WeatherDisplay:10.34,2013-05-20 19:41:00,
2013-05-20 15:46:00,68.5,52.7,30.11,NNE,17,4.0,8.0,57,0.00,OVC,OVC,0.00,WeatherDisplay:10.34,2013-05-20 19:46:00,
2013-05-20 15:51:00,68.0,52.7,30.11,WSW,238,6.0,7.0,58,0.00,OVC,OVC,0.00,WeatherDisplay:10.34,2013-05-20 19:51:00,
2013-05-20 15:56:00,68.0,53.1,30.11,NE,35,4.0,12.0,59,0.00,OVC,OVC,0.00,WeatherDisplay:10.34,2013-05-20 19:56:00,
2013-05-20 16:01:00,68.2,53.3,30.11,NE,40,8.0,13.0,59,0.00,FEW,FEW,0.00,WeatherDisplay:10.34,2013-05-20 20:01:00,
2013-05-20 16:06:00,68.4,53.5,30.11,SW,215,6.0,17.0,59,0.00,FEW,FEW,0.00,WeatherDisplay:10.34,2013-05-20 20:06:00,
2013-05-20 16:11:00,68.4,53.5,30.11,NE,50,11.0,17.0,59,0.00,FEW,FEW,0.00,WeatherDisplay:10.34,2013-05-20 20:11:00,
2013-05-20 16:16:00,68.5,53.6,30.11,WNW,290,7.0,9.0,59,0.00,FEW,FEW,0.00,WeatherDisplay:10.34,2013-05-20 20:16:00,
2013-05-20 16:21:00,68.5,53.6,30.11,NE,53,5.0,12.0,59,0.00,FEW,FEW,0.00,WeatherDisplay:10.34,2013-05-20 20:21:00,
2013-05-20 16:26:00,68.7,52.9,30.11,SW,221,6.0,10.0,57,0.00,FEW,FEW,0.00,WeatherDisplay:10.34,2013-05-20 20:26:00,
2013-05-20 16:31:00,68.9,53.5,30.11,NE,38,7.0,17.0,58,0.00,FEW,FEW,0.00,WeatherDisplay:10.34,2013-05-20 20:31:00,
2013-05-20 16:36:00,69.1,52.2,30.11,NNE,16,8.0,13.0,55,0.00,FEW,FEW,0.00,WeatherDisplay:10.34,2013-05-20 20:36:00,
2013-05-20 16:41:00,68.9,52.1,30.11,NW,318,8.0,15.0,55,0.00,FEW,FEW,0.00,WeatherDisplay:10.34,2013-05-20 20:41:00,
2013-05-20 16:46:00,68.9,52.1,30.11,NNE,13,6.0,10.0,55,0.00,FEW,FEW,0.00,WeatherDisplay:10.34,2013-05-20 20:46:00,
2013-05-20 16:51:00,69.1,52.2,30.11,South,178,5.0,7.0,55,0.00,FEW,FEW,0.00,WeatherDisplay:10.34,2013-05-20 20:51:00,
2013-05-20 16:56:00,69.3,52.4,30.11,NW,325,7.0,12.0,55,0.00,FEW,FEW,0.00,WeatherDisplay:10.34,2013-05-20 20:56:00,
2013-05-20 17:01:00,69.4,52.6,30.11,North,351,6.0,10.0,55,0.00,OVC,OVC,0.00,WeatherDisplay:10.34,2013-05-20 21:01:00,
2013-05-20 17:06:00,69.3,51.9,30.11,SSE,162,3.0,5.0,54,0.00,OVC,OVC,0.00,WeatherDisplay:10.34,2013-05-20 21:06:00,
2013-05-20 17:11:00,69.3,52.4,30.11,NNE,14,5.0,7.0,55,0.00,OVC,OVC,0.00,WeatherDisplay:10.34,2013-05-20 21:11:00,
2013-05-20 17:16:00,69.3,52.9,30.11,WSW,240,3.0,5.0,56,0.00,OVC,OVC,0.00,WeatherDisplay:10.34,2013-05-20 21:16:00,
2013-05-20 17:21:00,69.3,52.9,30.11,SW,222,3.0,7.0,56,0.00,OVC,OVC,0.00,WeatherDisplay:10.34,2013-05-20 21:21:00,
2013-05-20 17:26:00,69.4,52.6,30.11,South,190,3.0,3.0,55,0.00,OVC,OVC,0.00,WeatherDisplay:10.34,2013-05-20 21:26:00,
2013-05-20 17:31:00,69.1,52.2,30.11,SW,234,4.0,9.0,55,0.00,OVC,OVC,0.00,WeatherDisplay:10.34,2013-05-20 21:31:00,
2013-05-20 17:36:00,68.7,52.9,30.11,SW,236,6.0,7.0,57,0.00,OVC,OVC,0.00,WeatherDisplay:10.34,2013-05-20 21:36:00,
2013-05-20 17:41:00,68.2,52.8,30.11,ENE,60,3.0,7.0,58,0.00,OVC,OVC,0.00,WeatherDisplay:10.34,2013-05-20 21:41:00,
2013-05-20 17:46:00,68.0,53.6,30.11,WSW,245,3.0,7.0,60,0.00,OVC,OVC,0.00,WeatherDisplay:10.34,2013-05-20 21:46:00,
2013-05-20 17:51:00,68.0,53.6,30.11,South,188,6.0,9.0,60,0.00,OVC,OVC,0.00,WeatherDisplay:10.34,2013-05-20 21:51:00,
2013-05-20 17:56:00,67.8,53.0,30.11,WSW,250,5.0,8.0,59,0.00,OVC,OVC,0.00,WeatherDisplay:10.34,2013-05-20 21:56:00,
2013-05-20 18:01:00,68.2,54.2,30.11,WNW,299,0.0,3.0,61,0.00,CLR,CLR,0.00,WeatherDisplay:10.34,2013-05-20 22:01:00,
2013-05-20 18:06:00,68.5,54.6,30.11,North,11,4.0,8.0,61,0.00,CLR,CLR,0.00,WeatherDisplay:10.34,2013-05-20 22:06:00,
2013-05-20 18:11:00,68.7,54.3,30.11,NNW,330,3.0,7.0,60,0.00,CLR,CLR,0.00,WeatherDisplay:10.34,2013-05-20 22:11:00,
2013-05-20 18:16:00,68.7,53.8,30.11,South,190,3.0,3.0,59,0.00,CLR,CLR,0.00,WeatherDisplay:10.34,2013-05-20 22:16:00,
2013-05-20 18:21:00,68.4,53.5,30.11,SW,236,4.0,8.0,59,0.00,CLR,CLR,0.00,WeatherDisplay:10.34,2013-05-20 22:21:00,
2013-05-20 18:26:00,68.2,53.3,30.11,West,262,0.0,0.0,59,0.00,CLR,CLR,0.00,WeatherDisplay:10.34,2013-05-20 22:26:00,
2013-05-20 18:31:00,67.8,54.3,30.11,North,7,4.0,6.0,62,0.00,CLR,CLR,0.00,WeatherDisplay:10.34,2013-05-20 22:31:00,
2013-05-20 18:36:00,67.5,53.1,30.11,NNW,334,3.0,5.0,60,0.00,CLR,CLR,0.00,WeatherDisplay:10.34,2013-05-20 22:36:00,
2013-05-20 18:41:00,67.5,52.2,30.11,NNE,13,0.0,3.0,58,0.00,CLR,CLR,0.00,WeatherDisplay:10.34,2013-05-20 22:41:00,
2013-05-20 18:46:00,67.3,52.0,30.11,West,274,0.0,6.0,58,0.00,CLR,CLR,0.00,WeatherDisplay:10.34,2013-05-20 22:46:00,
2013-05-20 18:51:00,66.9,53.0,30.11,North,11,0.0,3.0,61,0.00,CLR,CLR,0.00,WeatherDisplay:10.34,2013-05-20 22:51:00,
2013-05-20 18:56:00,66.7,53.3,30.11,WNW,294,0.0,6.0,62,0.00,CLR,CLR,0.00,WeatherDisplay:10.34,2013-05-20 22:56:00,
2013-05-20 19:01:00,66.4,53.4,30.11,West,281,0.0,0.0,63,0.00,CLR,CLR,0.00,WeatherDisplay:10.34,2013-05-20 23:01:00,
2013-05-20 19:06:00,66.2,53.7,30.11,West,281,0.0,5.0,64,0.00,CLR,CLR,0.00,WeatherDisplay:10.34,2013-05-20 23:06:00,
2013-05-20 19:11:00,66.0,53.5,30.11,NNE,16,3.0,7.0,64,0.00,CLR,CLR,0.00,WeatherDisplay:10.34,2013-05-20 23:11:00,
2013-05-20 19:16:00,65.8,52.9,30.11,NW,315,4.0,5.0,63,0.00,CLR,CLR,0.00,WeatherDisplay:10.34,2013-05-20 23:16:00,
2013-05-20 19:21:00,65.8,52.9,30.11,NNE,14,0.0,2.0,63,0.00,CLR,CLR,0.00,WeatherDisplay:10.34,2013-05-20 23:21:00,
2013-05-20 19:26:00,65.7,52.7,30.11,NE,55,0.0,3.0,63,0.00,CLR,CLR,0.00,WeatherDisplay:10.34,2013-05-20 23:26:00,
2013-05-20 19:31:00,65.1,53.1,30.11,NE,55,0.0,0.0,65,0.00,CLR,CLR,0.00,WeatherDisplay:10.34,2013-05-20 23:31:00,
2013-05-20 19:36:00,64.6,53.0,30.12,NE,55,0.0,0.0,66,0.00,CLR,CLR,0.00,WeatherDisplay:10.34,2013-05-20 23:36:00,
2013-05-20 19:41:00,64.2,53.4,30.12,NE,56,0.0,0.0,68,0.00,CLR,CLR,0.00,WeatherDisplay:10.34,2013-05-20 23:41:00,
2013-05-20 19:46:00,63.9,53.5,30.12,NE,55,0.0,0.0,69,0.00,CLR,CLR,0.00,WeatherDisplay:10.34,2013-05-20 23:46:00,
2013-05-20 19:51:00,63.5,53.9,30.12,NE,55,0.0,0.0,71,0.00,CLR,CLR,0.00,WeatherDisplay:10.34,2013-05-20 23:51:00,
2013-05-20 19:56:00,63.1,53.6,30.12,NE,55,0.0,0.0,71,0.00,CLR,CLR,0.00,WeatherDisplay:10.34,2013-05-20 23:56:00,
2013-05-20 20:01:00,63.0,53.8,30.12,NE,55,0.0,0.0,72,0.00,CLR,CLR,0.00,WeatherDisplay:10.34,2013-05-21 00:01:00,
2013-05-20 20:06:00,62.6,53.4,30.15,NE,55,0.0,0.0,72,0.00,CLR,CLR,0.00,WeatherDisplay:10.34,2013-05-21 00:06:00,
2013-05-20 20:11:00,62.4,53.3,30.15,NE,54,0.0,0.0,72,0.00,CLR,CLR,0.00,WeatherDisplay:10.34,2013-05-21 00:11:00,
2013-05-20 20:16:00,62.1,53.3,30.15,NE,55,0.0,3.0,73,0.00,CLR,CLR,0.00,WeatherDisplay:10.34,2013-05-21 00:16:00,
2013-05-20 20:21:00,61.7,53.0,30.15,NE,55,0.0,0.0,73,0.00,CLR,CLR,0.00,WeatherDisplay:10.34,2013-05-21 00:21:00,
2013-05-20 20:26:00,61.5,53.2,30.15,NE,55,0.0,0.0,74,0.00,CLR,CLR,0.00,WeatherDisplay:10.34,2013-05-21 00:26:00,
2013-05-20 20:31:00,61.2,53.2,30.15,NE,55,0.0,0.0,75,0.00,CLR,CLR,0.00,WeatherDisplay:10.34,2013-05-21 00:31:00,
2013-05-20 20:36:00,60.8,52.8,30.12,NE,55,0.0,0.0,75,0.00,CLR,CLR,0.00,WeatherDisplay:10.34,2013-05-21 00:36:00,
2013-05-20 20:41:00,60.4,52.5,30.12,NE,55,0.0,0.0,75,0.00,CLR,CLR,0.00,WeatherDisplay:10.34,2013-05-21 00:41:00,
2013-05-20 20:46:00,60.1,52.1,30.12,NE,55,0.0,0.0,75,0.00,CLR,CLR,0.00,WeatherDisplay:10.34,2013-05-21 00:46:00,
2013-05-20 20:51:00,60.1,51.8,30.15,NE,55,0.0,0.0,74,0.00,CLR,CLR,0.00,WeatherDisplay:10.34,2013-05-21 00:51:00,
2013-05-20 20:56:00,59.9,52.0,30.15,NE,55,0.0,0.0,75,0.00,CLR,CLR,0.00,WeatherDisplay:10.34,2013-05-21 00:56:00,
2013-05-20 21:01:00,59.7,51.4,30.15,NE,55,0.0,0.0,74,0.00,CLR,CLR,0.00,WeatherDisplay:10.34,2013-05-21 01:01:00,
2013-05-20 21:06:00,59.4,51.1,30.15,NE,55,0.0,0.0,74,0.00,CLR,CLR,0.00,WeatherDisplay:10.34,2013-05-21 01:06:00,
2013-05-20 21:11:00,59.2,50.9,30.15,NE,55,0.0,0.0,74,0.00,CLR,CLR,0.00,WeatherDisplay:10.34,2013-05-21 01:11:00,
2013-05-20 21:16:00,59.0,50.7,30.15,NE,55,0.0,0.0,74,0.00,CLR,CLR,0.00,WeatherDisplay:10.34,2013-05-21 01:16:00,
2013-05-20 21:21:00,58.8,50.5,30.15,NE,55,0.0,0.0,74,0.00,CLR,CLR,0.00,WeatherDisplay:10.34,2013-05-21 01:21:00,
2013-05-20 21:26:00,58.8,50.5,30.15,NE,55,0.0,0.0,74,0.00,CLR,CLR,0.00,WeatherDisplay:10.34,2013-05-21 01:26:00,
2013-05-20 21:31:00,58.6,50.7,30.15,NE,54,0.0,0.0,75,0.00,CLR,CLR,0.00,WeatherDisplay:10.34,2013-05-21 01:31:00,
2013-05-20 21:36:00,58.5,50.6,30.15,NE,55,0.0,0.0,75,0.00,CLR,CLR,0.00,WeatherDisplay:10.34,2013-05-21 01:36:00,
2013-05-20 21:41:00,58.5,50.6,30.15,NE,55,0.0,0.0,75,0.00,CLR,CLR,0.00,WeatherDisplay:10.34,2013-05-21 01:41:00,
2013-05-20 21:46:00,58.3,50.4,30.15,NE,55,0.0,0.0,75,0.00,CLR,CLR,0.00,WeatherDisplay:10.34,2013-05-21 01:46:00,
2013-05-20 21:51:00,58.1,50.2,30.15,NE,55,0.0,0.0,75,0.00,CLR,CLR,0.00,WeatherDisplay:10.34,2013-05-21 01:51:00,
2013-05-20 21:56:00,57.9,50.0,30.15,NE,55,0.0,0.0,75,0.00,CLR,CLR,0.00,WeatherDisplay:10.34,2013-05-21 01:56:00,
2013-05-20 22:01:00,57.9,50.0,30.15,NE,55,0.0,0.0,75,0.00,CLR,CLR,0.00,WeatherDisplay:10.34,2013-05-21 02:01:00,
2013-05-20 22:06:00,57.6,49.7,30.15,NE,55,0.0,0.0,75,0.00,CLR,CLR,0.00,WeatherDisplay:10.34,2013-05-21 02:06:00,
2013-05-20 22:11:00,57.6,49.7,30.15,NE,55,0.0,0.0,75,0.00,CLR,CLR,0.00,WeatherDisplay:10.34,2013-05-21 02:11:00,
2013-05-20 22:16:00,57.4,49.5,30.15,NE,55,0.0,0.0,75,0.00,CLR,CLR,0.00,WeatherDisplay:10.34,2013-05-21 02:16:00,
2013-05-20 22:21:00,57.4,49.9,30.15,NE,54,0.0,0.0,76,0.00,CLR,CLR,0.00,WeatherDisplay:10.34,2013-05-21 02:21:00,
2013-05-20 22:26:00,57.4,49.9,30.15,NE,54,0.0,0.0,76,0.00,CLR,CLR,0.00,WeatherDisplay:10.34,2013-05-21 02:26:00,
2013-05-20 22:31:00,57.2,49.7,30.15,NE,55,0.0,0.0,76,0.00,CLR,CLR,0.00,WeatherDisplay:10.34,2013-05-21 02:31:00,
2013-05-20 22:36:00,57.2,50.1,30.15,NE,55,0.0,0.0,77,0.00,CLR,CLR,0.00,WeatherDisplay:10.34,2013-05-21 02:36:00,
2013-05-20 22:41:00,57.2,50.1,30.15,NE,55,0.0,0.0,77,0.00,CLR,CLR,0.00,WeatherDisplay:10.34,2013-05-21 02:41:00,
2013-05-20 22:46:00,57.2,50.1,30.15,NE,55,0.0,0.0,77,0.00,CLR,CLR,0.00,WeatherDisplay:10.34,2013-05-21 02:46:00,
2013-05-20 22:51:00,57.0,50.2,30.15,NE,55,0.0,0.0,78,0.00,CLR,CLR,0.00,WeatherDisplay:10.34,2013-05-21 02:51:00,
2013-05-20 22:56:00,57.0,50.2,30.15,NE,55,0.0,0.0,78,0.00,CLR,CLR,0.00,WeatherDisplay:10.34,2013-05-21 02:56:00,
2013-05-20 23:01:00,57.0,50.2,30.15,NE,55,0.0,0.0,78,0.00,CLR,CLR,0.00,WeatherDisplay:10.34,2013-05-21 03:01:00,
2013-05-20 23:06:00,57.0,50.6,30.15,NE,54,0.0,0.0,79,0.00,CLR,CLR,0.00,WeatherDisplay:10.34,2013-05-21 03:06:00,
2013-05-20 23:11:00,57.0,50.6,30.15,NE,55,0.0,0.0,79,0.00,CLR,CLR,0.00,WeatherDisplay:10.34,2013-05-21 03:11:00,
2013-05-20 23:16:00,56.8,50.4,30.15,NE,55,0.0,0.0,79,0.00,CLR,CLR,0.00,WeatherDisplay:10.34,2013-05-21 03:16:00,
2013-05-20 23:21:00,56.7,50.2,30.15,NE,55,0.0,0.0,79,0.00,CLR,CLR,0.00,WeatherDisplay:10.34,2013-05-21 03:21:00,
2013-05-20 23:26:00,56.7,50.6,30.15,NE,55,0.0,0.0,80,0.00,CLR,CLR,0.00,WeatherDisplay:10.34,2013-05-21 03:26:00,
2013-05-20 23:31:00,56.7,50.6,30.15,NE,55,0.0,0.0,80,0.00,CLR,CLR,0.00,WeatherDisplay:10.34,2013-05-21 03:31:00,
2013-05-20 23:36:00,56.7,50.6,30.15,NE,55,0.0,0.0,80,0.00,CLR,CLR,0.00,WeatherDisplay:10.34,2013-05-21 03:36:00,
2013-05-20 23:41:00,56.5,50.4,30.15,NE,56,0.0,0.0,80,0.00,CLR,CLR,0.00,WeatherDisplay:10.34,2013-05-21 03:41:00,
2013-05-20 23:46:00,56.5,50.4,30.15,NE,56,0.0,0.0,80,0.00,CLR,CLR,0.00,WeatherDisplay:10.34,2013-05-21 03:46:00,
2013-05-20 23:51:00,56.3,49.9,30.15,NE,56,0.0,0.0,79,0.00,CLR,CLR,0.00,WeatherDisplay:10.34,2013-05-21 03:51:00,
2013-05-20 23:56:00,56.3,50.2,30.15,NE,55,0.0,0.0,80,0.00,CLR,CLR,0.00,WeatherDisplay:10.34,2013-05-21 03:56:00,